Time;durP1;ratioP1;P1;durP2;ratioP2;P2;SDS_P1;SDS_P2;PMS_P1;PMS_P2;Temp;Humidity;BMP_temperature;BMP_pressure;BME280_temperature;BME280_humidity;BME280_pressure;Samples;Min_cycle;Max_cycle;Signal;HPM_P1;HPM_P2
2021/04/13 00:02:37;;;;;;;11.57;6.30;;;2.60;99.90;;;;;;4952808;28;20093;-68
2021/04/13 00:05:12;;;;;;;12.13;6.47;;;2.60;99.90;;;;;;4941081;28;20062;-68
2021/04/13 00:07:43;;;;;;;14.30;6.40;;;2.50;99.90;;;;;;4940261;28;20090;-68
2021/04/13 00:10:14;;;;;;;15.10;6.97;;;2.50;99.90;;;;;;4940160;28;20135;-67
2021/04/13 00:12:41;;;;;;;12.00;6.87;;;2.60;99.90;;;;;;4940551;28;20085;-68
2021/04/13 00:15:12;;;;;;;12.10;6.63;;;2.50;99.90;;;;;;4941738;28;20078;-67
2021/04/13 00:17:42;;;;;;;13.17;6.67;;;2.50;99.90;;;;;;4940310;28;20105;-68
2021/04/13 00:20:15;;;;;;;12.23;6.83;;;2.40;99.90;;;;;;4942301;28;20056;-68
2021/04/13 00:22:45;;;;;;;13.50;6.03;;;2.40;99.90;;;;;;4943826;28;20522;-68
2021/04/13 00:25:22;;;;;;;13.57;6.50;;;2.40;99.90;;;;;;4941598;28;20499;-68
2021/04/13 00:27:49;;;;;;;12.90;6.90;;;2.40;99.90;;;;;;4941966;28;20141;-68
2021/04/13 00:30:19;;;;;;;11.73;6.53;;;2.30;99.90;;;;;;4940022;28;20732;-68
2021/04/13 00:32:56;;;;;;;13.53;6.67;;;2.30;99.90;;;;;;4941086;28;20054;-68
2021/04/13 00:35:30;;;;;;;;;;;2.40;99.90;;;;;;4940478;28;20054;-68
2021/04/13 00:38:27;;;;;;;11.17;6.53;;;2.30;99.90;;;;;;4937068;28;19981;-68
2021/04/13 00:40:56;;;;;;;14.30;6.70;;;2.40;99.90;;;;;;4938851;28;20050;-67
2021/04/13 00:43:26;;;;;;;12.53;6.70;;;2.40;99.90;;;;;;4934384;28;20077;-67
2021/04/13 00:45:54;;;;;;;14.63;6.40;;;2.30;99.90;;;;;;4935418;28;20264;-68
2021/04/13 00:48:27;;;;;;;16.60;8.40;;;2.20;99.90;;;;;;4934571;28;20483;-68
2021/04/13 00:51:00;;;;;;;14.33;6.60;;;2.20;99.90;;;;;;4939292;28;20150;-68
2021/04/13 00:53:30;;;;;;;13.40;6.97;;;2.10;99.90;;;;;;4939965;28;21278;-68
2021/04/13 00:56:01;;;;;;;12.43;6.00;;;2.20;99.90;;;;;;4933414;28;20055;-68
2021/04/13 00:58:31;;;;;;;13.60;6.83;;;2.10;99.90;;;;;;4935382;28;20066;-68
2021/04/13 01:01:00;;;;;;;12.23;6.27;;;2.10;99.90;;;;;;4936482;28;20118;-68
2021/04/13 01:03:32;;;;;;;12.30;7.03;;;2.10;99.90;;;;;;4937776;28;20049;-68
2021/04/13 01:06:00;;;;;;;12.27;6.70;;;2.10;99.90;;;;;;4934546;28;20117;-68
2021/04/13 01:08:34;;;;;;;15.90;7.30;;;2.00;99.90;;;;;;4934263;28;20061;-68
2021/04/13 01:11:08;;;;;;;15.80;7.33;;;2.00;99.90;;;;;;4945188;28;20054;-68
2021/04/13 01:13:48;;;;;;;12.83;6.87;;;2.00;99.90;;;;;;4933410;28;20062;-68
2021/04/13 01:16:18;;;;;;;12.67;7.03;;;1.90;99.90;;;;;;4932128;28;20054;-68
2021/04/13 01:18:51;;;;;;;12.47;6.93;;;1.80;99.90;;;;;;4935554;28;20511;-68
2021/04/13 01:21:32;;;;;;;12.03;7.13;;;2.00;99.90;;;;;;4936845;28;20503;-68
2021/04/13 01:24:10;;;;;;;15.70;7.07;;;1.90;99.90;;;;;;4934777;28;20766;-68
2021/04/13 01:26:47;;;;;;;14.27;6.77;;;1.90;99.90;;;;;;4935741;28;20182;-68
2021/04/13 01:29:15;;;;;;;16.08;7.10;;;1.90;99.90;;;;;;4934245;28;20511;-68
2021/04/13 01:31:46;;;;;;;12.17;6.77;;;1.90;99.90;;;;;;4936272;28;20161;-67
2021/04/13 01:34:19;;;;;;;13.80;7.17;;;1.80;99.90;;;;;;4934488;28;20050;-67
2021/04/13 01:36:50;;;;;;;14.07;7.00;;;1.90;99.90;;;;;;4935109;28;20058;-67
2021/04/13 01:39:22;;;;;;;14.30;7.10;;;1.90;99.90;;;;;;4933491;28;20495;-67
2021/04/13 01:41:58;;;;;;;12.73;6.73;;;1.90;99.90;;;;;;4934677;28;21502;-67
2021/04/13 01:44:28;;;;;;;14.07;6.80;;;1.80;99.90;;;;;;4938029;28;20216;-67
2021/04/13 01:46:56;;;;;;;14.50;7.40;;;1.80;99.90;;;;;;4939732;28;20146;-67
2021/04/13 01:49:23;;;;;;;15.60;7.00;;;1.80;99.90;;;;;;4943176;28;20081;-67
2021/04/13 01:51:52;;;;;;;12.77;7.07;;;1.80;99.90;;;;;;4945828;28;20098;-67
2021/04/13 01:54:19;;;;;;;13.20;6.97;;;1.90;99.90;;;;;;4941254;28;20165;-68
2021/04/13 01:57:01;;;;;;;16.10;7.53;;;1.90;99.90;;;;;;4937878;28;20074;-68
2021/04/13 01:59:35;;;;;;;13.97;6.97;;;1.90;99.90;;;;;;4941196;28;20051;-68
2021/04/13 02:02:09;;;;;;;15.53;6.70;;;1.90;99.90;;;;;;4941086;28;20062;-68
2021/04/13 02:04:45;;;;;;;12.73;6.50;;;1.90;99.90;;;;;;4938459;28;20149;-67
2021/04/13 02:07:24;;;;;;;15.13;7.70;;;1.80;99.90;;;;;;4954851;28;20538;-68
2021/04/13 02:10:01;;;;;;;15.60;7.80;;;1.80;99.90;;;;;;4939711;28;20137;-68
2021/04/13 02:12:30;;;;;;;15.13;8.00;;;1.80;99.90;;;;;;4940487;28;20169;-68
2021/04/13 02:15:04;;;;;;;13.03;7.40;;;1.80;99.90;;;;;;4940911;28;20050;-67
2021/04/13 02:17:34;;;;;;;14.67;7.10;;;1.80;99.90;;;;;;4941301;28;20047;-68
2021/04/13 02:20:02;;;;;;;15.40;7.57;;;1.70;99.90;;;;;;4942051;28;20088;-67
2021/04/13 02:22:29;;;;;;;14.57;7.87;;;1.70;99.90;;;;;;4939411;28;20180;-67
2021/04/13 02:25:02;;;;;;;15.57;7.97;;;1.70;99.90;;;;;;4940278;28;20077;-68
2021/04/13 02:27:32;;;;;;;14.07;8.07;;;1.60;99.90;;;;;;4938607;28;20054;-68
2021/04/13 02:30:06;;;;;;;16.20;7.90;;;1.60;99.90;;;;;;4939283;28;20632;-68
2021/04/13 02:32:34;;;;;;;15.27;7.77;;;1.50;99.90;;;;;;4938548;28;20061;-68
2021/04/13 02:35:05;;;;;;;15.37;7.43;;;1.60;99.90;;;;;;4938577;28;20043;-68
2021/04/13 02:37:34;;;;;;;16.40;7.37;;;1.50;99.90;;;;;;4935329;28;20101;-68
2021/04/13 02:40:07;;;;;;;15.97;7.70;;;1.50;99.90;;;;;;4939009;28;20046;-68
2021/04/13 02:42:37;;;;;;;13.00;6.93;;;1.40;99.90;;;;;;4940158;28;20056;-68
2021/04/13 02:45:07;;;;;;;16.20;8.33;;;1.50;99.90;;;;;;4936754;28;20057;-67
2021/04/13 02:47:44;;;;;;;17.90;8.03;;;1.50;99.90;;;;;;4937535;28;20062;-68
2021/04/13 02:50:16;;;;;;;17.75;7.60;;;1.60;99.90;;;;;;4935896;28;20317;-68
2021/04/13 02:52:48;;;;;;;16.40;8.10;;;1.50;99.90;;;;;;4938838;28;20758;-67
2021/04/13 02:55:23;;;;;;;14.37;8.00;;;1.60;99.90;;;;;;4937374;28;20082;-67
2021/04/13 02:57:51;;;;;;;13.93;7.63;;;1.50;99.90;;;;;;4936164;28;20054;-68
2021/04/13 03:00:21;;;;;;;17.87;8.47;;;1.40;99.90;;;;;;4938615;28;20139;-67
2021/04/13 03:02:50;;;;;;;12.93;7.33;;;1.40;99.90;;;;;;4937913;28;20486;-67
2021/04/13 03:05:20;;;;;;;16.00;8.20;;;1.30;99.90;;;;;;4937598;28;20054;-67
2021/04/13 03:07:49;;;;;;;16.23;8.47;;;1.30;99.90;;;;;;4938079;28;20067;-67
2021/04/13 03:10:19;;;;;;;13.47;7.67;;;1.20;99.90;;;;;;4936125;28;20050;-67
2021/04/13 03:12:51;;;;;;;13.57;7.50;;;1.20;99.90;;;;;;4936332;28;20423;-67
2021/04/13 03:15:21;;;;;;;18.60;8.47;;;1.20;99.90;;;;;;4936026;28;20166;-67
2021/04/13 03:17:51;;;;;;;17.77;9.17;;;1.20;99.90;;;;;;4936953;28;20097;-67
2021/04/13 03:20:23;;;;;;;16.90;8.53;;;1.20;99.90;;;;;;4937560;28;20082;-67
2021/04/13 03:22:51;;;;;;;18.20;8.83;;;1.30;99.90;;;;;;4939620;28;20562;-67
2021/04/13 03:25:19;;;;;;;15.43;7.80;;;1.30;99.90;;;;;;4936974;28;20084;-67
2021/04/13 03:27:47;;;;;;;17.77;9.13;;;1.30;99.90;;;;;;4937628;28;20058;-67
2021/04/13 03:30:25;;;;;;;16.90;8.57;;;1.20;99.90;;;;;;4937997;28;20184;-67
2021/04/13 03:32:58;;;;;;;17.43;9.17;;;1.20;99.90;;;;;;4947896;28;20145;-67
2021/04/13 03:35:28;;;;;;;17.07;9.63;;;1.10;99.90;;;;;;4937806;28;20085;-67
2021/04/13 03:37:57;;;;;;;19.73;8.80;;;1.10;99.90;;;;;;4936094;28;20050;-67
2021/04/13 03:40:26;;;;;;;18.40;8.87;;;1.10;99.90;;;;;;4934701;28;20081;-67
2021/04/13 03:42:57;;;;;;;19.30;10.43;;;1.00;99.90;;;;;;4939561;28;20057;-67
2021/04/13 03:45:28;;;;;;;23.33;9.53;;;1.00;99.90;;;;;;4935863;28;20443;-68
2021/04/13 03:47:57;;;;;;;19.20;9.03;;;1.00;99.90;;;;;;4937515;28;20154;-67
2021/04/13 03:50:28;;;;;;;18.43;8.90;;;1.00;99.90;;;;;;4948138;28;20089;-67
2021/04/13 03:53:03;;;;;;;17.83;9.67;;;0.90;99.90;;;;;;4937060;28;20054;-67
2021/04/13 03:55:31;;;;;;;18.83;9.10;;;0.90;99.90;;;;;;4938197;28;20065;-67
2021/04/13 03:57:57;;;;;;;16.87;9.17;;;0.80;99.90;;;;;;4934075;28;20062;-67
2021/04/13 04:00:27;;;;;;;18.50;9.47;;;0.80;99.90;;;;;;4935893;28;20046;-67
2021/04/13 04:02:54;;;;;;;19.10;9.83;;;0.80;99.90;;;;;;4938839;28;20121;-67
2021/04/13 04:05:25;;;;;;;19.60;10.27;;;0.70;99.90;;;;;;4937509;28;20618;-67
2021/04/13 04:07:56;;;;;;;20.53;9.90;;;0.80;99.90;;;;;;4935950;28;21768;-67
2021/04/13 04:10:47;;;;;;;17.37;9.13;;;0.90;99.90;;;;;;4937077;28;20042;-67
2021/04/13 04:13:26;;;;;;;18.70;9.93;;;1.00;99.90;;;;;;4937112;28;20089;-67
2021/04/13 04:16:03;;;;;;;21.10;9.43;;;1.00;99.90;;;;;;4947483;28;20065;-67
2021/04/13 04:18:30;;;;;;;;;;;0.90;99.90;;;;;;4936952;28;20054;-67
2021/04/13 04:20:59;;;;;;;27.05;10.75;;;0.80;99.90;;;;;;4939893;28;20075;-67
2021/04/13 04:23:30;;;;;;;21.63;9.80;;;0.80;99.90;;;;;;4935878;28;20069;-67
2021/04/13 04:26:00;;;;;;;22.70;10.23;;;0.80;99.90;;;;;;4934370;28;20511;-67
2021/04/13 04:28:31;;;;;;;20.27;10.30;;;0.80;99.90;;;;;;4939571;28;20078;-67
2021/04/13 04:31:34;;;;;;;17.60;9.17;;;0.80;99.90;;;;;;4945649;28;20050;-67
2021/04/13 04:34:01;;;;;;;18.00;9.77;;;0.90;99.90;;;;;;4937750;28;20065;-67
2021/04/13 04:36:31;;;;;;;19.90;10.43;;;0.90;99.90;;;;;;4937311;28;20074;-67
2021/04/13 04:39:22;;;;;;;19.97;9.93;;;1.00;99.90;;;;;;4936315;28;20062;-67
2021/04/13 04:41:53;;;;;;;17.07;9.30;;;0.80;99.90;;;;;;4937997;28;20467;-67
2021/04/13 04:44:24;;;;;;;20.20;9.77;;;0.80;99.90;;;;;;4937111;28;21488;-67
2021/04/13 04:46:51;;;;;;;25.47;10.30;;;0.90;99.90;;;;;;4936967;28;20489;-67
2021/04/13 04:49:19;;;;;;;20.20;10.40;;;0.90;99.90;;;;;;4937665;28;20112;-67
2021/04/13 04:51:50;;;;;;;23.80;10.87;;;0.90;99.90;;;;;;4939942;28;20526;-67
2021/04/13 04:54:18;;;;;;;19.50;9.90;;;0.80;99.90;;;;;;4944783;28;20078;-67
2021/04/13 04:56:44;;;;;;;22.70;9.90;;;0.80;99.90;;;;;;4946401;28;20176;-68
2021/04/13 04:59:11;;;;;;;18.83;9.93;;;0.80;99.90;;;;;;4942797;28;20080;-67
2021/04/13 05:01:37;;;;;;;21.93;10.10;;;0.90;99.90;;;;;;4945092;28;20141;-67
2021/04/13 05:04:07;;;;;;;21.93;10.40;;;0.90;99.90;;;;;;4944281;28;20113;-67
2021/04/13 05:06:33;;;;;;;19.63;10.00;;;0.90;99.90;;;;;;4938557;28;20054;-67
2021/04/13 05:09:00;;;;;;;16.63;9.43;;;0.90;99.90;;;;;;4937750;28;20523;-67
2021/04/13 05:11:27;;;;;;;17.00;9.60;;;1.00;99.90;;;;;;4940840;28;20095;-67
2021/04/13 05:13:54;;;;;;;22.17;11.23;;;0.90;99.90;;;;;;4938349;28;20065;-67
2021/04/13 05:16:22;;;;;;;18.43;9.47;;;1.00;99.90;;;;;;4939099;28;20612;-67
2021/04/13 05:18:49;;;;;;;22.13;10.83;;;1.10;99.90;;;;;;4938850;28;20570;-67
2021/04/13 05:21:16;;;;;;;25.00;10.33;;;1.10;99.90;;;;;;4940453;28;20141;-67
2021/04/13 05:23:42;;;;;;;21.83;10.27;;;1.10;99.90;;;;;;4940253;28;20286;-67
2021/04/13 05:26:09;;;;;;;24.23;11.67;;;1.10;99.90;;;;;;4941509;28;20092;-67
2021/04/13 05:28:37;;;;;;;22.67;10.90;;;1.10;99.90;;;;;;4942097;28;20059;-67
2021/04/13 05:31:05;;;;;;;27.50;11.47;;;1.10;99.90;;;;;;4941421;28;20156;-67
2021/04/13 05:33:32;;;;;;;36.60;11.43;;;1.10;99.90;;;;;;4941780;28;20435;-67
2021/04/13 05:36:01;;;;;;;28.83;11.60;;;1.20;99.90;;;;;;4941913;28;20137;-67
2021/04/13 05:38:30;;;;;;;23.43;11.83;;;1.20;99.90;;;;;;4940802;28;20101;-67
2021/04/13 05:40:59;;;;;;;23.93;11.10;;;1.20;99.90;;;;;;4942144;28;20056;-67
2021/04/13 05:43:26;;;;;;;22.13;11.77;;;1.30;99.90;;;;;;4942714;28;20078;-67
2021/04/13 05:45:58;;;;;;;22.33;12.07;;;1.30;99.90;;;;;;4941385;28;20158;-67
2021/04/13 05:48:25;;;;;;;25.03;11.37;;;1.40;99.90;;;;;;4939786;28;20082;-67
2021/04/13 05:50:52;;;;;;;23.13;11.43;;;1.30;99.90;;;;;;4944084;28;20189;-67
2021/04/13 05:53:19;;;;;;;27.03;10.63;;;1.40;99.90;;;;;;4948524;28;20119;-67
2021/04/13 05:55:46;;;;;;;21.70;11.33;;;1.40;99.90;;;;;;4949595;28;20149;-67
2021/04/13 05:58:18;;;;;;;24.90;10.93;;;1.60;99.90;;;;;;4946257;28;20055;-68
2021/04/13 06:00:47;;;;;;;27.40;11.60;;;1.60;99.90;;;;;;4941683;28;20137;-67
2021/04/13 06:03:17;;;;;;;22.43;11.03;;;1.70;99.90;;;;;;4941690;28;20050;-68
2021/04/13 06:05:43;;;;;;;20.70;9.70;;;1.70;99.90;;;;;;4942167;28;20049;-68
2021/04/13 06:08:11;;;;;;;18.03;10.47;;;1.80;99.90;;;;;;4944703;28;20061;-67
2021/04/13 06:10:38;;;;;;;21.27;10.70;;;1.80;99.90;;;;;;4944375;28;20086;-68
2021/04/13 06:13:04;;;;;;;19.47;10.93;;;1.90;99.90;;;;;;4940607;28;20080;-67
2021/04/13 06:15:33;;;;;;;25.27;11.57;;;1.90;99.90;;;;;;4939737;28;21124;-67
2021/04/13 06:18:00;;;;;;;20.63;9.47;;;2.00;99.90;;;;;;4941177;28;20058;-67
2021/04/13 06:20:29;;;;;;;20.43;10.90;;;2.10;99.90;;;;;;4942218;28;20078;-71
2021/04/13 06:22:58;;;;;;;23.10;11.00;;;2.20;99.90;;;;;;4944089;28;20054;-67
2021/04/13 06:25:27;;;;;;;21.67;9.90;;;2.20;99.90;;;;;;4945400;28;20454;-67
2021/04/13 06:27:55;;;;;;;18.97;9.60;;;2.30;99.90;;;;;;4945836;28;20809;-67
2021/04/13 06:30:24;;;;;;;19.13;10.23;;;2.50;99.90;;;;;;4945812;28;20062;-68
2021/04/13 06:32:51;;;;;;;17.90;9.40;;;2.50;99.90;;;;;;4944457;28;20154;-67
2021/04/13 06:35:19;;;;;;;17.77;9.37;;;2.50;99.90;;;;;;4943261;28;20054;-67
2021/04/13 06:37:49;;;;;;;18.10;9.07;;;2.60;99.90;;;;;;4944469;28;20086;-68
2021/04/13 06:40:28;;;;;;;18.73;10.17;;;2.60;99.90;;;;;;4943777;28;20046;-67
2021/04/13 06:43:11;;;;;;;24.10;10.53;;;2.60;99.90;;;;;;4943657;28;20086;-67
2021/04/13 06:45:52;;;;;;;21.87;9.50;;;2.80;99.90;;;;;;4949714;28;20085;-67
2021/04/13 06:48:39;;;;;;;21.03;10.07;;;2.80;99.90;;;;;;4962378;28;20050;-67
2021/04/13 06:51:14;;;;;;;18.83;9.37;;;2.90;99.90;;;;;;4946351;28;20187;-67
2021/04/13 06:54:11;;;;;;;20.13;10.30;;;3.00;99.90;;;;;;4942788;28;20601;-67
2021/04/13 06:57:19;;;;;;;18.90;10.13;;;3.10;99.90;;;;;;4942737;28;20051;-67
2021/04/13 07:00:20;;;;;;;22.85;9.90;;;3.30;99.90;;;;;;4950336;28;20141;-69
2021/04/13 07:03:03;;;;;;;20.67;10.13;;;3.30;99.90;;;;;;4957697;28;20063;-69
2021/04/13 07:05:42;;;;;;;20.10;9.87;;;3.30;99.90;;;;;;4950458;28;20542;-69
2021/04/13 07:08:41;;;;;;;25.00;9.80;;;3.40;99.90;;;;;;4983156;28;20129;-68
2021/04/13 07:11:49;;;;;;;20.67;10.70;;;3.40;99.90;;;;;;4985475;28;20070;-69
2021/04/13 07:14:57;;;;;;;18.63;10.43;;;3.70;99.90;;;;;;4977454;28;20063;-69
2021/04/13 07:17:29;;;;;;;19.23;10.63;;;3.80;99.90;;;;;;4960227;28;20054;-69
2021/04/13 07:20:00;;;;;;;17.70;10.07;;;3.80;99.90;;;;;;4961891;28;20050;-69
2021/04/13 07:22:32;;;;;;;17.87;10.17;;;3.90;99.90;;;;;;4959586;28;20290;-70
2021/04/13 07:25:05;;;;;;;17.33;9.97;;;3.90;99.90;;;;;;4951544;28;20073;-69
2021/04/13 07:27:57;;;;;;;22.33;10.67;;;4.00;99.90;;;;;;4972877;28;20144;-69
2021/04/13 07:34:57;;;;;;;18.93;10.73;;;4.20;99.90;;;;;;4942721;29;20114;-69
2021/04/13 07:37:32;;;;;;;16.90;9.60;;;4.30;99.90;;;;;;4940125;28;20124;-70
2021/04/13 07:40:02;;;;;;;19.03;10.00;;;4.50;99.90;;;;;;4972532;28;20426;-69
2021/04/13 07:42:31;;;;;;;18.40;9.73;;;4.60;99.90;;;;;;4972174;28;20051;-69
2021/04/13 07:45:13;;;;;;;18.80;10.03;;;4.60;99.90;;;;;;4968549;28;20121;-69
2021/04/13 07:48:00;;;;;;;16.77;9.83;;;4.70;99.90;;;;;;4972022;28;20088;-69
2021/04/13 07:50:37;;;;;;;17.35;9.77;;;4.70;99.90;;;;;;4967233;28;20089;-69
2021/04/13 07:53:13;;;;;;;17.52;10.07;;;5.00;99.90;;;;;;4973737;28;20046;-69
2021/04/13 07:55:49;;;;;;;15.98;7.13;;;5.20;99.90;;;;;;4973421;28;20050;-70
2021/04/13 07:58:31;;;;;;;13.38;6.40;;;5.40;99.90;;;;;;4973685;28;20058;-69
2021/04/13 08:00:58;;;;;;;13.20;7.57;;;5.50;99.90;;;;;;4970249;28;20534;-70
2021/04/13 08:03:28;;;;;;;14.30;7.63;;;5.70;99.90;;;;;;4973254;28;20407;-69
2021/04/13 08:05:57;;;;;;;16.93;6.50;;;5.80;99.90;;;;;;4972243;28;20050;-69
2021/04/13 08:08:29;;;;;;;15.37;7.40;;;6.10;99.90;;;;;;4970192;28;20053;-69
2021/04/13 08:11:09;;;;;;;16.00;7.80;;;6.30;99.90;;;;;;4969986;28;20069;-69
2021/04/13 08:13:36;;;;;;;11.93;6.93;;;6.40;99.90;;;;;;4970845;28;20093;-69
2021/04/13 08:16:05;;;;;;;13.47;6.47;;;6.80;99.90;;;;;;4970913;28;20049;-70
2021/04/13 08:18:37;;;;;;;13.57;6.67;;;6.90;99.90;;;;;;4971103;28;20058;-70
2021/04/13 08:21:19;;;;;;;12.43;6.10;;;7.00;99.90;;;;;;4970953;28;20715;-70
2021/04/13 08:23:47;;;;;;;15.07;7.00;;;7.30;99.90;;;;;;4970758;28;20081;-70
2021/04/13 08:26:33;;;;;;;12.70;7.00;;;7.70;99.90;;;;;;4971152;28;20058;-70
2021/04/13 08:29:10;;;;;;;10.43;5.90;;;8.10;99.90;;;;;;4970148;28;20866;-70
2021/04/13 08:34:52;;;;;;;13.13;5.95;;;9.30;99.90;;;;;;4973329;28;20553;-70
2021/04/13 08:37:31;;;;;;;10.05;5.55;;;10.30;99.90;;;;;;4973858;28;20569;-70
2021/04/13 08:40:32;;;;;;;9.05;5.50;;;10.90;99.90;;;;;;4973620;28;20097;-70
2021/04/13 08:43:10;;;;;;;9.18;5.57;;;11.80;99.90;;;;;;4974118;28;20050;-70
2021/04/13 08:45:41;;;;;;;10.10;5.32;;;12.60;99.90;;;;;;4972622;28;20061;-70
2021/04/13 08:48:18;;;;;;;9.40;5.97;;;13.70;99.90;;;;;;4972208;28;20065;-71
2021/04/13 08:50:48;;;;;;;;;;;14.60;99.90;;;;;;4972868;28;20046;-71
2021/04/13 08:53:30;;;;;;;8.02;4.63;;;15.40;99.30;;;;;;4970392;28;19988;-72
2021/04/13 08:56:06;;;;;;;7.60;4.20;;;16.20;93.80;;;;;;4971205;28;20475;-73
2021/04/13 08:58:52;;;;;;;11.38;4.70;;;16.70;90.70;;;;;;4969341;28;20125;-73
2021/04/13 09:01:36;;;;;;;8.57;4.05;;;16.90;86.70;;;;;;4969162;28;20069;-73
2021/04/13 09:04:08;;;;;;;6.72;4.25;;;17.20;82.20;;;;;;4968244;28;20051;-71
2021/04/13 09:06:55;;;;;;;8.50;4.25;;;17.50;82.80;;;;;;4971248;28;20054;-71
2021/04/13 09:09:40;;;;;;;8.07;4.68;;;18.40;78.50;;;;;;4972237;28;20352;-71
2021/04/13 09:12:13;;;;;;;12.00;4.82;;;18.60;72.50;;;;;;4971102;28;20054;-71
2021/04/13 09:14:46;;;;;;;7.03;3.95;;;18.80;71.20;;;;;;4971013;28;20050;-71
2021/04/13 09:17:28;;;;;;;6.32;3.92;;;19.00;69.90;;;;;;4970088;28;20058;-71
2021/04/13 09:20:10;;;;;;;8.70;4.28;;;18.70;67.50;;;;;;4972774;28;20161;-71
2021/04/13 09:22:48;;;;;;;6.55;3.90;;;19.10;64.40;;;;;;4972152;28;20534;-71
2021/04/13 09:25:25;;;;;;;8.77;4.05;;;18.90;67.60;;;;;;4973088;28;20058;-71
2021/04/13 09:28:06;;;;;;;8.90;3.33;;;19.80;64.10;;;;;;4970887;28;20074;-71
2021/04/13 09:30:36;;;;;;;8.13;2.85;;;19.80;64.70;;;;;;4972325;28;20054;-71
2021/04/13 09:33:27;;;;;;;5.05;3.05;;;20.30;59.60;;;;;;4970380;28;20050;-70
2021/04/13 09:36:21;;;;;;;7.07;2.90;;;20.60;60.90;;;;;;4969948;28;20112;-71
2021/04/13 09:39:24;;;;;;;6.72;2.80;;;21.20;56.70;;;;;;4969729;28;20058;-71
2021/04/13 09:42:08;;;;;;;4.50;2.20;;;21.20;55.80;;;;;;4961309;28;20156;-71
2021/04/13 09:45:04;;;;;;;5.43;2.40;;;21.50;52.90;;;;;;4964710;28;20386;-71
2021/04/13 09:47:55;;;;;;;7.50;2.50;;;21.70;53.70;;;;;;4966650;28;20082;-71
2021/04/13 09:50:34;;;;;;;5.03;1.95;;;21.20;53.60;;;;;;4968908;28;20093;-71
2021/04/13 09:53:22;;;;;;;4.13;2.25;;;20.80;52.70;;;;;;4966484;28;20061;-71
2021/04/13 09:55:57;;;;;;;;;;;21.40;53.80;;;;;;4969137;28;20213;-71
2021/04/13 09:58:47;;;;;;;10.98;3.33;;;21.90;54.00;;;;;;4968879;28;19925;-71
2021/04/13 10:01:31;;;;;;;9.40;2.95;;;22.10;50.00;;;;;;4968077;28;20074;-71
2021/04/13 10:04:34;;;;;;;7.97;2.45;;;22.10;51.30;;;;;;4966655;28;20077;-71
2021/04/13 10:07:13;;;;;;;8.40;2.72;;;20.10;49.90;;;;;;4968779;28;20086;-71
2021/04/13 10:09:41;;;;;;;5.10;2.38;;;18.30;51.40;;;;;;4973961;28;20042;-74
2021/04/13 10:12:40;;;;;;;3.65;1.90;;;16.80;52.60;;;;;;4975786;28;20137;-73
2021/04/13 10:15:42;;;;;;;8.90;2.35;;;15.50;54.60;;;;;;4972016;28;20129;-72
2021/04/13 10:18:46;;;;;;;4.30;2.40;;;14.50;55.10;;;;;;4974269;28;20051;-73
2021/04/13 10:21:20;;;;;;;5.18;2.20;;;14.00;57.00;;;;;;4958492;28;20058;-72
2021/04/13 10:24:26;;;;;;;8.93;2.50;;;13.70;57.40;;;;;;4979596;28;20094;-73
2021/04/13 10:27:29;;;;;;;5.30;2.45;;;14.30;57.90;;;;;;4964505;28;20065;-73
2021/04/13 10:30:19;;;;;;;5.53;2.45;;;14.20;57.80;;;;;;4968599;28;20062;-73
2021/04/13 10:33:16;;;;;;;5.75;2.30;;;13.60;58.00;;;;;;4981343;28;20101;-72
2021/04/13 10:36:19;;;;;;;5.80;2.30;;;12.70;58.60;;;;;;4979668;28;20058;-71
2021/04/13 10:39:14;;;;;;;7.78;2.50;;;11.80;60.10;;;;;;4960595;28;20054;-71
2021/04/13 10:42:17;;;;;;;5.00;2.20;;;11.50;59.00;;;;;;4980785;28;20049;-71
2021/04/13 10:45:18;;;;;;;5.45;2.53;;;11.20;59.60;;;;;;4978224;28;20058;-71
2021/04/13 10:48:30;;;;;;;11.70;2.67;;;11.00;61.50;;;;;;4978276;28;20042;-71
2021/04/13 10:51:44;;;;;;;5.60;2.42;;;11.10;61.80;;;;;;4982170;28;20503;-72
2021/04/13 10:54:55;;;;;;;6.63;3.00;;;11.50;62.60;;;;;;4950435;28;20144;-72
2021/04/13 10:58:11;;;;;;;6.30;3.00;;;11.00;61.90;;;;;;4975787;28;20050;-71
2021/04/13 11:01:03;;;;;;;6.22;2.72;;;10.60;61.00;;;;;;4977358;28;20113;-71
2021/04/13 11:04:20;;;;;;;5.00;2.50;;;10.30;62.10;;;;;;4975128;28;20054;-71
2021/04/13 11:07:33;;;;;;;5.75;2.38;;;10.40;62.20;;;;;;4975790;28;20109;-72
2021/04/13 11:10:41;;;;;;;8.18;2.40;;;10.40;59.80;;;;;;4975654;28;20140;-71
2021/04/13 11:13:47;;;;;;;4.22;2.17;;;11.50;61.10;;;;;;4977067;28;20057;-72
2021/04/13 11:16:45;;;;;;;5.82;2.10;;;13.70;59.30;;;;;;4969792;28;20050;-72
2021/04/13 11:19:22;;;;;;;6.68;2.35;;;14.80;54.10;;;;;;4971982;28;20865;-73
2021/04/13 11:22:07;;;;;;;;;;;15.50;53.90;;;;;;4970429;28;20058;-73
2021/04/13 11:25:19;;;;;;;8.90;2.70;;;15.10;54.40;;;;;;4974251;28;20480;-72
2021/04/13 11:28:21;;;;;;;6.32;2.67;;;14.20;55.20;;;;;;4940175;28;20915;-72
2021/04/13 11:31:11;;;;;;;5.45;2.20;;;13.70;56.20;;;;;;4972724;28;20917;-72
2021/04/13 11:34:09;;;;;;;3.85;1.67;;;12.90;54.80;;;;;;4975273;28;20058;-72
2021/04/13 11:36:49;;;;;;;2.92;1.35;;;12.50;55.30;;;;;;4968713;28;20479;-72
2021/04/13 11:39:25;;;;;;;2.88;1.60;;;13.20;55.20;;;;;;4971935;28;20054;-71
2021/04/13 11:42:09;;;;;;;6.80;1.75;;;14.80;53.10;;;;;;4970718;28;20177;-72
2021/04/13 11:44:42;;;;;;;4.90;2.42;;;14.40;52.10;;;;;;4969684;28;20086;-73
2021/04/13 11:47:17;;;;;;;6.25;2.58;;;13.60;54.70;;;;;;4970060;28;20120;-72
2021/04/13 11:49:50;;;;;;;5.22;2.00;;;13.10;55.70;;;;;;4972082;28;20157;-72
2021/04/13 11:52:26;;;;;;;3.80;1.70;;;12.60;55.20;;;;;;4969921;28;20169;-72
2021/04/13 11:54:54;;;;;;;3.53;1.42;;;12.30;53.80;;;;;;4969917;28;20054;-72
2021/04/13 11:57:23;;;;;;;5.07;1.63;;;12.20;54.30;;;;;;4961993;28;20682;-72
2021/04/13 12:00:25;;;;;;;4.65;1.88;;;12.80;53.20;;;;;;4958076;28;20446;-72
2021/04/13 12:03:33;;;;;;;3.92;1.33;;;14.60;53.60;;;;;;4957568;28;20081;-72
2021/04/13 12:06:05;;;;;;;2.65;1.48;;;16.10;51.00;;;;;;4959748;28;20054;-72
2021/04/13 12:08:45;;;;;;;5.72;2.10;;;15.70;50.50;;;;;;4961711;28;20061;-72
2021/04/13 12:11:13;;;;;;;4.82;1.75;;;15.00;52.20;;;;;;4956697;28;20058;-72
2021/04/13 12:13:43;;;;;;;5.88;1.80;;;14.20;52.40;;;;;;4968672;28;20073;-72
2021/04/13 12:16:12;;;;;;;8.38;1.65;;;13.80;53.50;;;;;;4967832;28;20972;-72
2021/04/13 12:19:13;;;;;;;3.70;1.73;;;13.50;53.00;;;;;;4967835;28;20061;-72
2021/04/13 12:21:58;;;;;;;5.90;1.60;;;13.10;53.70;;;;;;4964134;28;21185;-72
2021/04/13 12:24:47;;;;;;;5.22;1.70;;;14.00;55.50;;;;;;4966110;28;20050;-72
2021/04/13 12:27:46;;;;;;;5.95;1.73;;;14.40;53.20;;;;;;4959538;28;20185;-72
2021/04/13 12:30:58;;;;;;;2.97;1.25;;;15.00;50.00;;;;;;4965946;28;20148;-73
2021/04/13 12:33:54;;;;;;;4.68;1.30;;;15.60;50.00;;;;;;4970404;28;20050;-73
2021/04/13 12:36:57;;;;;;;2.72;1.20;;;16.50;48.80;;;;;;4965707;28;20097;-73
2021/04/13 12:39:48;;;;;;;5.32;1.02;;;14.80;45.90;;;;;;4914761;28;20059;-71
2021/04/13 12:42:44;;;;;;;3.45;1.25;;;14.50;47.20;;;;;;4917923;29;20047;-71
2021/04/13 12:45:29;;;;;;;3.97;1.45;;;14.70;49.30;;;;;;4954444;28;20058;-68
2021/04/13 12:47:58;;;;;;;3.88;1.20;;;14.80;51.30;;;;;;4960161;28;20133;-72
2021/04/13 12:50:29;;;;;;;2.47;1.30;;;15.30;51.00;;;;;;4959975;28;20046;-73
2021/04/13 12:52:57;;;;;;;3.70;1.50;;;16.20;51.00;;;;;;4961128;28;20128;-74
2021/04/13 12:55:26;;;;;;;3.05;1.20;;;16.30;49.20;;;;;;4959667;28;20302;-73
2021/04/13 12:57:55;;;;;;;2.50;1.15;;;14.90;49.00;;;;;;4961339;28;20061;-74
2021/04/13 13:00:24;;;;;;;6.60;1.10;;;14.20;50.40;;;;;;4964011;28;20046;-72
2021/04/13 13:02:51;;;;;;;6.68;1.40;;;13.50;50.30;;;;;;4965452;28;20086;-74
2021/04/13 13:05:20;;;;;;;3.97;1.20;;;14.70;52.50;;;;;;4964004;28;20415;-74
2021/04/13 13:07:58;;;;;;;3.92;1.20;;;15.70;50.20;;;;;;4970204;28;20077;-74
2021/04/13 13:10:30;;;;;;;1.92;0.90;;;16.20;50.10;;;;;;4968485;28;20053;-74
2021/04/13 13:13:03;;;;;;;2.88;1.20;;;16.80;48.30;;;;;;4969836;28;20073;-74
2021/04/13 13:15:35;;;;;;;2.22;0.93;;;16.80;47.20;;;;;;4970228;28;20073;-74
2021/04/13 13:18:18;;;;;;;2.50;1.10;;;17.50;48.90;;;;;;4968720;28;20514;-74
2021/04/13 13:20:46;;;;;;;4.07;1.33;;;17.70;48.30;;;;;;4970555;28;20443;-75
2021/04/13 13:23:16;;;;;;;3.60;1.10;;;17.70;47.00;;;;;;4971906;28;20073;-74
2021/04/13 13:25:43;;;;;;;9.90;1.40;;;18.20;49.30;;;;;;4973488;28;20057;-74
2021/04/13 13:28:13;;;;;;;3.65;1.60;;;17.70;49.00;;;;;;4973671;28;20089;-75
2021/04/13 13:30:41;;;;;;;3.80;1.20;;;17.70;48.20;;;;;;4972818;28;20042;-75
2021/04/13 13:33:08;;;;;;;3.25;1.20;;;17.70;48.70;;;;;;4973385;28;20054;-75
2021/04/13 13:35:34;;;;;;;9.90;1.23;;;17.80;48.80;;;;;;4971363;28;20999;-75
2021/04/13 13:38:02;;;;;;;3.85;1.27;;;18.10;49.20;;;;;;4971244;28;20046;-75
2021/04/13 13:40:34;;;;;;;3.47;1.08;;;18.40;47.90;;;;;;4972233;28;20538;-77
2021/04/13 13:43:05;;;;;;;2.63;1.00;;;18.80;46.50;;;;;;4974337;28;20434;-74
2021/04/13 13:45:35;;;;;;;6.97;1.38;;;18.20;47.00;;;;;;4975357;28;20474;-75